sensor_id;sensor_type;location;lat;lon;timestamp;P1;durP1;ratioP1;P2;durP2;ratioP2
24086;SDS011;22893;50.572;7.234;2023-04-03T00:01:05;0.80;;;0.50;;
24086;SDS011;22893;50.572;7.234;2023-04-03T00:03:33;0.65;;;0.40;;
24086;SDS011;22893;50.572;7.234;2023-04-03T00:06:01;0.53;;;0.40;;
24086;SDS011;22893;50.572;7.234;2023-04-03T00:08:29;0.65;;;0.50;;
24086;SDS011;22893;50.572;7.234;2023-04-03T00:10:58;0.72;;;0.50;;
24086;SDS011;22893;50.572;7.234;2023-04-03T00:13:26;0.42;;;0.30;;
24086;SDS011;22893;50.572;7.234;2023-04-03T00:15:53;0.30;;;0.30;;
24086;SDS011;22893;50.572;7.234;2023-04-03T00:18:21;0.93;;;0.45;;
24086;SDS011;22893;50.572;7.234;2023-04-03T00:20:48;0.65;;;0.65;;
24086;SDS011;22893;50.572;7.234;2023-04-03T00:23:16;0.62;;;0.42;;
24086;SDS011;22893;50.572;7.234;2023-04-03T00:25:44;0.72;;;0.40;;
24086;SDS011;22893;50.572;7.234;2023-04-03T00:28:12;0.78;;;0.50;;
24086;SDS011;22893;50.572;7.234;2023-04-03T00:30:40;1.05;;;0.30;;
24086;SDS011;22893;50.572;7.234;2023-04-03T00:33:09;1.55;;;0.60;;
24086;SDS011;22893;50.572;7.234;2023-04-03T00:35:40;0.50;;;0.40;;
24086;SDS011;22893;50.572;7.234;2023-04-03T00:38:08;1.05;;;0.40;;
24086;SDS011;22893;50.572;7.234;2023-04-03T00:40:36;0.72;;;0.40;;
24086;SDS011;22893;50.572;7.234;2023-04-03T00:43:16;0.75;;;0.60;;
24086;SDS011;22893;50.572;7.234;2023-04-03T00:45:41;0.85;;;0.40;;
24086;SDS011;22893;50.572;7.234;2023-04-03T00:48:11;0.62;;;0.40;;
24086;SDS011;22893;50.572;7.234;2023-04-03T00:50:41;1.47;;;0.57;;
24086;SDS011;22893;50.572;7.234;2023-04-03T00:53:13;1.27;;;0.60;;
24086;SDS011;22893;50.572;7.234;2023-04-03T00:55:41;0.75;;;0.35;;
24086;SDS011;22893;50.572;7.234;2023-04-03T00:58:09;0.80;;;0.40;;
24086;SDS011;22893;50.572;7.234;2023-04-03T01:00:38;0.82;;;0.72;;
24086;SDS011;22893;50.572;7.234;2023-04-03T01:03:09;0.60;;;0.47;;
24086;SDS011;22893;50.572;7.234;2023-04-03T01:05:36;0.42;;;0.33;;
24086;SDS011;22893;50.572;7.234;2023-04-03T01:08:04;0.75;;;0.40;;
24086;SDS011;22893;50.572;7.234;2023-04-03T01:10:32;1.07;;;0.40;;
24086;SDS011;22893;50.572;7.234;2023-04-03T01:13:00;0.90;;;0.88;;
24086;SDS011;22893;50.572;7.234;2023-04-03T01:15:28;0.30;;;0.30;;
24086;SDS011;22893;50.572;7.234;2023-04-03T01:17:58;0.53;;;0.42;;
24086;SDS011;22893;50.572;7.234;2023-04-03T01:25:56;0.30;;;0.30;;
24086;SDS011;22893;50.572;7.234;2023-04-03T01:28:25;2.42;;;0.40;;
24086;SDS011;22893;50.572;7.234;2023-04-03T01:33:47;0.37;;;0.25;;
24086;SDS011;22893;50.572;7.234;2023-04-03T01:36:20;1.25;;;0.50;;
24086;SDS011;22893;50.572;7.234;2023-04-03T01:38:54;0.78;;;0.30;;
24086;SDS011;22893;50.572;7.234;2023-04-03T01:41:22;1.25;;;0.30;;
24086;SDS011;22893;50.572;7.234;2023-04-03T01:43:51;1.85;;;0.40;;
24086;SDS011;22893;50.572;7.234;2023-04-03T01:46:19;0.65;;;0.37;;
24086;SDS011;22893;50.572;7.234;2023-04-03T01:48:47;1.37;;;0.50;;
24086;SDS011;22893;50.572;7.234;2023-04-03T01:51:15;0.78;;;0.40;;
24086;SDS011;22893;50.572;7.234;2023-04-03T20:19:26;16.40;;;7.33;;
24086;SDS011;22893;50.572;7.234;2023-04-03T20:21:55;17.02;;;7.12;;
24086;SDS011;22893;50.572;7.234;2023-04-03T20:24:26;19.65;;;7.20;;
24086;SDS011;22893;50.572;7.234;2023-04-03T20:26:56;17.87;;;7.08;;
24086;SDS011;22893;50.572;7.234;2023-04-03T20:29:23;19.02;;;6.05;;
24086;SDS011;22893;50.572;7.234;2023-04-03T20:31:52;14.38;;;6.28;;
24086;SDS011;22893;50.572;7.234;2023-04-03T20:34:19;18.92;;;5.92;;
24086;SDS011;22893;50.572;7.234;2023-04-03T20:36:47;9.85;;;5.70;;
24086;SDS011;22893;50.572;7.234;2023-04-03T20:39:15;13.48;;;5.50;;
24086;SDS011;22893;50.572;7.234;2023-04-03T20:41:44;14.78;;;5.08;;
24086;SDS011;22893;50.572;7.234;2023-04-03T20:44:11;14.07;;;4.62;;
24086;SDS011;22893;50.572;7.234;2023-04-03T20:46:40;10.90;;;5.08;;
24086;SDS011;22893;50.572;7.234;2023-04-03T20:49:08;7.90;;;3.22;;
24086;SDS011;22893;50.572;7.234;2023-04-03T20:51:36;10.45;;;4.08;;
24086;SDS011;22893;50.572;7.234;2023-04-03T20:54:04;14.05;;;5.15;;
24086;SDS011;22893;50.572;7.234;2023-04-03T20:56:32;9.73;;;4.12;;
24086;SDS011;22893;50.572;7.234;2023-04-03T20:58:59;9.38;;;3.55;;
24086;SDS011;22893;50.572;7.234;2023-04-03T21:01:29;12.95;;;5.42;;
24086;SDS011;22893;50.572;7.234;2023-04-03T21:04:06;6.28;;;3.17;;
24086;SDS011;22893;50.572;7.234;2023-04-03T21:20:43;5.90;;;2.75;;
24086;SDS011;22893;50.572;7.234;2023-04-03T21:23:12;8.78;;;2.80;;
24086;SDS011;22893;50.572;7.234;2023-04-03T21:25:40;8.53;;;2.87;;
24086;SDS011;22893;50.572;7.234;2023-04-03T21:28:08;9.13;;;3.70;;
24086;SDS011;22893;50.572;7.234;2023-04-03T21:30:36;11.10;;;4.08;;
24086;SDS011;22893;50.572;7.234;2023-04-03T21:33:04;11.30;;;2.65;;
24086;SDS011;22893;50.572;7.234;2023-04-03T21:35:31;5.92;;;3.25;;
24086;SDS011;22893;50.572;7.234;2023-04-03T21:37:58;7.55;;;2.77;;
24086;SDS011;22893;50.572;7.234;2023-04-03T21:40:26;7.58;;;2.47;;
24086;SDS011;22893;50.572;7.234;2023-04-03T21:42:54;6.12;;;2.62;;
24086;SDS011;22893;50.572;7.234;2023-04-03T21:45:22;7.45;;;2.70;;
24086;SDS011;22893;50.572;7.234;2023-04-03T21:47:49;8.45;;;2.62;;
24086;SDS011;22893;50.572;7.234;2023-04-03T21:50:17;6.53;;;2.15;;
24086;SDS011;22893;50.572;7.234;2023-04-03T21:52:45;6.17;;;2.80;;
24086;SDS011;22893;50.572;7.234;2023-04-03T21:55:12;7.45;;;2.30;;
24086;SDS011;22893;50.572;7.234;2023-04-03T21:57:40;6.22;;;2.05;;
24086;SDS011;22893;50.572;7.234;2023-04-03T22:00:08;5.97;;;1.85;;
24086;SDS011;22893;50.572;7.234;2023-04-03T22:02:39;9.98;;;2.30;;
24086;SDS011;22893;50.572;7.234;2023-04-03T22:05:06;6.78;;;1.77;;
24086;SDS011;22893;50.572;7.234;2023-04-03T22:07:34;2.22;;;1.75;;
24086;SDS011;22893;50.572;7.234;2023-04-03T22:10:02;9.10;;;1.62;;
24086;SDS011;22893;50.572;7.234;2023-04-03T22:12:31;3.85;;;1.27;;
24086;SDS011;22893;50.572;7.234;2023-04-03T22:14:59;6.80;;;1.80;;
24086;SDS011;22893;50.572;7.234;2023-04-03T22:17:28;5.55;;;1.60;;
24086;SDS011;22893;50.572;7.234;2023-04-03T22:19:56;3.55;;;1.90;;
24086;SDS011;22893;50.572;7.234;2023-04-03T22:22:23;4.72;;;1.60;;
24086;SDS011;22893;50.572;7.234;2023-04-03T22:24:51;4.83;;;1.87;;
24086;SDS011;22893;50.572;7.234;2023-04-03T22:27:20;6.22;;;1.90;;
24086;SDS011;22893;50.572;7.234;2023-04-03T22:29:47;4.60;;;2.00;;
24086;SDS011;22893;50.572;7.234;2023-04-03T22:32:15;2.50;;;1.27;;
24086;SDS011;22893;50.572;7.234;2023-04-03T22:34:43;6.03;;;1.90;;
24086;SDS011;22893;50.572;7.234;2023-04-03T22:37:16;5.10;;;1.62;;
24086;SDS011;22893;50.572;7.234;2023-04-03T22:39:40;5.17;;;1.45;;
24086;SDS011;22893;50.572;7.234;2023-04-03T22:42:07;3.27;;;1.37;;
24086;SDS011;22893;50.572;7.234;2023-04-03T22:44:35;6.55;;;1.70;;
24086;SDS011;22893;50.572;7.234;2023-04-03T22:47:02;1.35;;;0.70;;
24086;SDS011;22893;50.572;7.234;2023-04-03T22:49:30;4.78;;;1.47;;
24086;SDS011;22893;50.572;7.234;2023-04-03T22:51:58;4.20;;;1.50;;
24086;SDS011;22893;50.572;7.234;2023-04-03T22:54:26;1.62;;;0.80;;
24086;SDS011;22893;50.572;7.234;2023-04-03T22:56:53;1.60;;;0.72;;
24086;SDS011;22893;50.572;7.234;2023-04-03T22:59:21;3.22;;;0.93;;
24086;SDS011;22893;50.572;7.234;2023-04-03T23:01:48;2.42;;;1.15;;
24086;SDS011;22893;50.572;7.234;2023-04-03T23:04:16;2.33;;;1.00;;
24086;SDS011;22893;50.572;7.234;2023-04-03T23:06:43;3.75;;;1.60;;
24086;SDS011;22893;50.572;7.234;2023-04-03T23:09:12;3.83;;;1.22;;
24086;SDS011;22893;50.572;7.234;2023-04-03T23:11:39;1.22;;;0.82;;
24086;SDS011;22893;50.572;7.234;2023-04-03T23:14:07;2.17;;;1.30;;
24086;SDS011;22893;50.572;7.234;2023-04-03T23:16:35;1.87;;;0.93;;
24086;SDS011;22893;50.572;7.234;2023-04-03T23:19:02;3.47;;;1.00;;
24086;SDS011;22893;50.572;7.234;2023-04-03T23:21:30;3.10;;;1.17;;
24086;SDS011;22893;50.572;7.234;2023-04-03T23:23:58;2.42;;;1.22;;
24086;SDS011;22893;50.572;7.234;2023-04-03T23:26:25;3.30;;;1.00;;
24086;SDS011;22893;50.572;7.234;2023-04-03T23:28:53;2.40;;;1.00;;
24086;SDS011;22893;50.572;7.234;2023-04-03T23:31:21;2.85;;;0.82;;
24086;SDS011;22893;50.572;7.234;2023-04-03T23:33:50;2.35;;;0.90;;
24086;SDS011;22893;50.572;7.234;2023-04-03T23:36:18;2.50;;;1.05;;
24086;SDS011;22893;50.572;7.234;2023-04-03T23:38:45;3.05;;;1.57;;
24086;SDS011;22893;50.572;7.234;2023-04-03T23:41:13;1.72;;;0.78;;
24086;SDS011;22893;50.572;7.234;2023-04-03T23:43:41;3.90;;;0.82;;
24086;SDS011;22893;50.572;7.234;2023-04-03T23:46:08;4.92;;;0.90;;
24086;SDS011;22893;50.572;7.234;2023-04-03T23:48:36;3.17;;;0.90;;
24086;SDS011;22893;50.572;7.234;2023-04-03T23:51:03;2.60;;;1.00;;
24086;SDS011;22893;50.572;7.234;2023-04-03T23:53:31;2.95;;;0.90;;
24086;SDS011;22893;50.572;7.234;2023-04-03T23:55:59;1.10;;;0.55;;
24086;SDS011;22893;50.572;7.234;2023-04-03T23:58:26;2.52;;;0.85;;
